GOGS

Cap Skirring Airport

Cap Skirring, Senegal
METAR GOGS 171900Z 36004KT CAVOK 26/21 Q1011
Observed Flight Rules
Nov-17 @ 19:00 UTC (3 hours ago) Visual Flight Rules
Wind Visibility Clouds
360° at 4 knots 10,000+ meters
  • Clear skies
Temperatures Readings
Current 26°C / 79°F
Dewpoint 21°C / 70°F
Humidity 74%
Altimeter 29.85" Hg
Pressure 1011 hPa
Elevation 13
METAR GOGS 171900Z 36004KT CAVOK 26/21 Q1011
Observed Flight Rules
Nov-17 @ 19:00 UTC
(3 hours ago)
VFR
Wind Visibility
360° at 4 knots 10,000+ meters
Clouds
  • Clear skies
Temperature Dewpoint
26°C / 79°F 21°C / 70°F
Humidity Altimeter Pressure
74% 29.85" Hg 1011 hPa